logo tempoitalia

Diretta Meteo Dalaman, Turchialunedì 31 agosto ore 08:20

Mappa
Sereno 29 °C Sereno 24 Ore: T.min 26 T.max 37
Ponente Nord Km/h 20.3 Punto di rugiada: 12 °C Umidità: 35% Visibilità: 10 Km
Il sole sorge alle: 06:35 Il sole tramonta alle: 19:35
31 Agosto 2026 08:20 tempo osservato: Sereno Sereno 29 35 1009 vento: Nord N 20.3
31 Agosto 2026 07:50 tempo osservato: Sereno Sereno 28 37 1009 vento: Nord N 18.5
31 Agosto 2026 07:20 tempo osservato: Sereno Sereno 27 39 1009 vento: Nord N/NE 13
31 Agosto 2026 06:50 tempo osservato: Sereno Sereno 27 36 1009 vento: Nord N 14.8
31 Agosto 2026 06:20 tempo osservato: Sereno Sereno 28 34 1008 vento: Nord N 18.5
31 Agosto 2026 05:50 tempo osservato: Sereno Sereno 27 36 1008 vento: Nord N 13
31 Agosto 2026 05:20 tempo osservato: Sereno Sereno 27 36 1009 vento: Nord N 13
31 Agosto 2026 04:50 tempo osservato: Sereno Sereno 28 34 1008 vento: Nord N 25.9
31 Agosto 2026 04:20 tempo osservato: Sereno Sereno 28 34 1009 vento: Nord N 22.2
31 Agosto 2026 03:50 tempo osservato: Sereno Sereno 28 37 1009 vento: Nord N 20.3
31 Agosto 2026 03:20 tempo osservato: Sereno Sereno 28 34 1009 vento: Nord N 18.5
31 Agosto 2026 02:50 tempo osservato: Sereno Sereno 27 39 1009 vento: Nord N 18.5
31 Agosto 2026 02:20 tempo osservato: Sereno Sereno 29 35 1009 vento: Nord N 22.2
31 Agosto 2026 01:50 tempo osservato: Sereno Sereno 30 33 1009 vento: Nord N/NO 20.3
31 Agosto 2026 01:20 tempo osservato: Sereno Sereno 28 37 1009 vento: Nord N 16.7
31 Agosto 2026 00:50 tempo osservato: Sereno Sereno 28 37 1009 vento: Nord N 13
31 Agosto 2026 00:20 tempo osservato: Sereno Sereno 26 41 1009 vento: Nord N/NE 7.4
30 Agosto 2026 23:50 tempo osservato: Sereno Sereno 26 44 1009 vento: Nord NE 7.4
30 Agosto 2026 23:20 tempo osservato: Sereno Sereno 28 37 1009 vento: Nord N/NO 9.3
30 Agosto 2026 22:50 tempo osservato: Sereno Sereno 30 33 1009 vento: Nord N/NO 13
30 Agosto 2026 22:20 tempo osservato: Sereno Sereno 30 33 1008 vento: Nord N 13
30 Agosto 2026 21:50 tempo osservato: Sereno Sereno 31 31 1008 vento: Nord N/NO 14.8
30 Agosto 2026 21:20 tempo osservato: Sereno Sereno 30 33 1008 vento: Nord N/NE 13
30 Agosto 2026 20:50 tempo osservato: Sereno Sereno 31 31 1007 vento: Nord N/NE 11.1
30 Agosto 2026 20:20 tempo osservato: Poco Nuvoloso Poco Nuvoloso 31 31 1007 vento: Nord N/NE 13
30 Agosto 2026 19:50 tempo osservato: Poco Nuvoloso Poco Nuvoloso 30 42 1007 vento: Nord E/NE 9.3
30 Agosto 2026 19:20 tempo osservato: Poco Nuvoloso Poco Nuvoloso 31 43 1006 vento: Nord E 7.4
30 Agosto 2026 18:50 tempo osservato: Poco Nuvoloso Poco Nuvoloso 32 40 1006 vento: Nord S 11.1
30 Agosto 2026 18:20 tempo osservato: Poco Nuvoloso Poco Nuvoloso 34 36 1006 vento: Nord S/SO 11.1
30 Agosto 2026 17:50 tempo osservato: Poco Nuvoloso Poco Nuvoloso 34 36 1006 vento: Nord O/SO 20.3
30 Agosto 2026 17:20 tempo osservato: Poco Nuvoloso Poco Nuvoloso 34 34 1006 vento: Nord SO 22.2
30 Agosto 2026 16:50 tempo osservato: Poco Nuvoloso Poco Nuvoloso 32 49 1006 vento: Nord O/SO 16.7
30 Agosto 2026 16:20 tempo osservato: Sereno Sereno 32 52 1006 vento: Nord O/SO 29.6
30 Agosto 2026 15:50 tempo osservato: Sereno Sereno 34 38 1006 vento: Nord O/SO 18.5
30 Agosto 2026 15:20 tempo osservato: Sereno Sereno 37 19 1006 vento: Nord NO 18.5
30 Agosto 2026 14:50 tempo osservato: Sereno Sereno 36 20 1007 vento: Nord N/NO 20.3
30 Agosto 2026 14:20 tempo osservato: Sereno Sereno 36 22 1007 vento: Nord NO 22.2
30 Agosto 2026 13:50 tempo osservato: Sereno Sereno 36 22 1007 vento: Nord NO 24
30 Agosto 2026 13:20 tempo osservato: Sereno Sereno 35 23 1007 vento: Nord NO 25.9
30 Agosto 2026 12:50 tempo osservato: Sereno Sereno 34 26 1007 vento: Nord NO 31.5
30 Agosto 2026 12:20 tempo osservato: Sereno Sereno 35 21 1008 vento: Nord N/NO 37
30 Agosto 2026 11:50 tempo osservato: Sereno Sereno 34 23 1008 vento: Nord N 35.2
30 Agosto 2026 11:20 tempo osservato: Sereno Sereno 34 24 1008 vento: Nord N 33.3
30 Agosto 2026 10:50 tempo osservato: Sereno Sereno 33 26 1008 vento: Nord N 27.8
30 Agosto 2026 10:20 tempo osservato: Sereno Sereno 32 27 1008 vento: Nord N 27.8
30 Agosto 2026 09:50 tempo osservato: Sereno Sereno 31 29 1008 vento: Nord N 25.9
30 Agosto 2026 09:20 tempo osservato: Sereno Sereno 30 33 1008 vento: Nord N 24
30 Agosto 2026 08:50 tempo osservato: Sereno Sereno 28 37 1009 vento: Nord N 29.6